Egan, Iowa
Current Conditions -  °F | °C
As of 9:35 AM on Friday 24 Oct 2014 (Local Time) from KPDC Reporting Station
Haze Haze  
Wind Chill: 53°   Ceiling: 200
Heat Index: 53°   Visibility: 1.2mi
Dew Point: 51°   Wind: 3mph
Humidity: 96%   Direction: 110°ESE
Pressure: 30.02"   Gusts: NA
Location:  43.1584°N, 91.2436°W
Report Text: KPDC 241435Z AUTO 11003KT 1 1/4SM BR OVC002 11/11 A3002 RMK AO2 T01140108
Loading
Personal Weather Stations






























Interactive Weather Map
Tropical Storm Tracking
New forecast layout! Learn more

10-Day Weather Forecast

Advertisements
Track Severe Weather on mobile